Main page
METAR-TAF:

METAR-TAF

Airports :

Oil platform

Troll A, Norway

latitude: 60-38-42N, longitude: 3-43-29E, elevation: 20 m

Current weather observation

The report was made 26 minutes ago, at 23:50 UTC
Wind 38 kt from the West/Southwest
Temperature 7°C
Humidity 76%
Pressure 985 hPa
Visibility 10 km or more

METAR: ENQA 172350Z AUTO 24038KT 9999NDV BKN020/// BKN170/// 07/03 Q0985 W06/S6

Time: 01:16 (00:16 UTC)


TAF: missing

Weather observations and forecasts of more than 4000 airports (METAR and TAF reports).

The available stations are represented by yellow and red dots on the map.

Hover mouse over dot to see the name of the station.

Then click to see weather observations and forecasts.

To change the map : click on the green buttons with a black cross to zoom in, on the green button with a dash to zoom out, or on the green arrows for adjacent maps.


METAR-TAF: